createdAt,value
2022-10-05T00:00:29.870Z,82.42
2022-10-05T00:02:59.362Z,81.07
2022-10-05T00:05:32.074Z,80.95
2022-10-05T00:08:09.058Z,81.75
2022-10-05T00:10:36.880Z,80.53
2022-10-05T00:13:07.671Z,80.34
2022-10-05T00:15:37.191Z,80.19
2022-10-05T00:18:13.443Z,79.67
2022-10-05T00:20:42.435Z,80.68
2022-10-05T00:23:17.432Z,80.52
2022-10-05T00:25:45.285Z,81.37
2022-10-05T00:28:19.697Z,80.43
2022-10-05T00:30:47.618Z,81.89
2022-10-05T00:33:16.683Z,81.11
2022-10-05T00:35:44.475Z,80.98
2022-10-05T00:38:12.293Z,80.91
2022-10-05T00:41:00.043Z,81.01
2022-10-05T00:44:03.072Z,80.17
2022-10-05T00:46:40.114Z,81.63
2022-10-05T00:49:17.531Z,81.63
2022-10-05T00:51:51.477Z,80.15
2022-10-05T00:54:31.303Z,79.77
2022-10-05T00:57:13.480Z,81.28
2022-10-05T00:59:52.302Z,81.20
2022-10-05T01:02:29.258Z,80.92
2022-10-05T01:05:07.126Z,80.17
2022-10-05T01:07:45.582Z,81.36
2022-10-05T01:10:22.754Z,82.62
2022-10-05T01:12:58.504Z,82.69
2022-10-05T01:15:32.632Z,81.94
2022-10-05T01:18:06.252Z,81.04
2022-10-05T01:20:47.276Z,80.36
2022-10-05T01:23:59.228Z,79.86
2022-10-05T01:26:46.516Z,81.33
2022-10-05T01:29:23.288Z,80.44
2022-10-05T01:31:57.770Z,81.97
2022-10-05T01:34:36.973Z,82.09
2022-10-05T01:37:10.530Z,80.97
2022-10-05T01:39:48.416Z,82.18
2022-10-05T01:42:29.407Z,81.51
2022-10-05T01:45:09.724Z,82.64
2022-10-05T01:47:45.042Z,80.83
2022-10-05T01:50:26.380Z,80.60
2022-10-05T01:53:04.025Z,80.47
2022-10-05T01:55:38.626Z,79.20
2022-10-05T01:58:18.050Z,80.26
2022-10-05T02:00:55.562Z,80.59
2022-10-05T02:03:29.315Z,80.36
2022-10-05T02:06:00.625Z,80.66
2022-10-05T02:08:35.087Z,81.45
2022-10-05T02:11:07.358Z,81.96
2022-10-05T02:13:41.392Z,81.85
2022-10-05T02:16:17.728Z,82.68
2022-10-05T02:18:51.910Z,82.37
2022-10-05T02:21:21.696Z,82.40
2022-10-05T02:23:54.189Z,81.29
2022-10-05T02:26:23.489Z,80.44
2022-10-05T02:28:56.143Z,80.84
2022-10-05T02:31:30.194Z,80.84
2022-10-05T02:34:25.799Z,81.38
2022-10-05T02:37:04.534Z,81.44
2022-10-05T02:39:43.387Z,82.60
2022-10-05T02:42:19.947Z,81.70
2022-10-05T02:44:59.364Z,81.13
2022-10-05T02:47:36.271Z,81.92
2022-10-05T02:50:12.979Z,83.25
2022-10-05T02:52:53.706Z,82.13
2022-10-05T02:55:29.907Z,82.41
2022-10-05T02:58:04.407Z,81.61
2022-10-05T03:00:35.953Z,83.42
2022-10-05T03:03:10.386Z,82.80
2022-10-05T03:05:43.850Z,81.34
2022-10-05T03:08:19.305Z,83.96
2022-10-05T03:10:59.039Z,83.73
2022-10-05T03:13:32.873Z,82.66
2022-10-05T03:16:17.122Z,82.33
2022-10-05T03:18:59.301Z,83.28
2022-10-05T03:21:44.970Z,82.65
2022-10-05T03:24:28.394Z,83.75
2022-10-05T03:27:05.315Z,84.37
2022-10-05T03:29:40.595Z,83.86
2022-10-05T03:32:19.646Z,84.25
2022-10-05T03:34:54.799Z,84.48
2022-10-05T03:37:29.098Z,84.05
2022-10-05T03:40:02.303Z,81.83
2022-10-05T03:42:37.227Z,82.72
2022-10-05T03:45:10.432Z,81.94
2022-10-05T03:47:46.323Z,85.32
2022-10-05T03:50:27.162Z,84.08
2022-10-05T03:52:58.953Z,85.08
2022-10-05T03:55:33.961Z,85.51
2022-10-05T03:58:07.561Z,84.05
2022-10-05T04:00:37.971Z,84.42
2022-10-05T04:03:12.058Z,81.67
2022-10-05T04:05:51.619Z,81.47
2022-10-05T04:08:26.153Z,81.34
2022-10-05T04:10:58.029Z,82.73
2022-10-05T04:13:32.651Z,84.17
2022-10-05T04:16:08.055Z,86.19
2022-10-05T04:18:39.485Z,85.13
2022-10-05T04:21:13.049Z,84.08
2022-10-05T04:23:49.084Z,85.06
2022-10-05T04:26:21.023Z,84.80
2022-10-05T04:28:57.327Z,85.31
2022-10-05T04:31:39.288Z,84.41
2022-10-05T04:34:18.410Z,85.37
2022-10-05T04:36:58.724Z,84.15
2022-10-05T04:39:37.835Z,85.34
2022-10-05T04:42:13.696Z,85.56
2022-10-05T04:45:09.220Z,85.86
2022-10-05T04:48:05.341Z,84.56
2022-10-05T04:50:49.021Z,86.59
2022-10-05T04:53:26.630Z,86.01
2022-10-05T04:55:59.603Z,85.96
2022-10-05T04:58:48.678Z,86.31
2022-10-05T05:01:36.027Z,86.88
2022-10-05T05:04:22.004Z,86.28
2022-10-05T05:07:04.638Z,87.62
2022-10-05T05:10:22.907Z,85.25
2022-10-05T05:13:03.530Z,85.80
2022-10-05T05:15:47.658Z,85.83
2022-10-05T05:18:42.912Z,84.34
2022-10-05T05:21:22.924Z,84.42
2022-10-05T05:23:57.601Z,84.92
2022-10-05T05:26:38.898Z,85.46
2022-10-05T05:29:17.924Z,86.45
2022-10-05T05:31:50.913Z,88.45
2022-10-05T05:34:42.145Z,87.84
2022-10-05T05:37:19.285Z,86.20
2022-10-05T05:39:56.206Z,85.13
2022-10-05T05:42:36.881Z,85.39
2022-10-05T05:45:13.021Z,86.25
2022-10-05T05:47:46.277Z,88.56
2022-10-05T05:50:34.665Z,86.60
2022-10-05T05:53:10.784Z,85.81
2022-10-05T05:55:43.297Z,87.77
2022-10-05T05:58:20.403Z,86.54
2022-10-05T06:00:53.117Z,85.33
2022-10-05T06:03:25.661Z,89.62
2022-10-05T06:05:58.100Z,87.31
2022-10-05T06:08:34.952Z,86.82
2022-10-05T06:11:10.746Z,86.66
2022-10-05T06:13:41.607Z,88.16
2022-10-05T06:16:18.600Z,86.97
2022-10-05T06:18:52.683Z,87.12
2022-10-05T06:21:27.907Z,88.66
2022-10-05T06:23:59.276Z,87.82
2022-10-05T06:27:01.593Z,88.68
2022-10-05T06:29:45.122Z,88.66
2022-10-05T06:32:24.907Z,86.88
2022-10-05T06:35:02.957Z,87.27
2022-10-05T06:37:46.761Z,85.81
2022-10-05T06:40:28.334Z,86.46
2022-10-05T06:43:07.671Z,87.97
2022-10-05T06:45:50.333Z,85.72
2022-10-05T06:48:26.720Z,87.06
2022-10-05T06:51:02.197Z,87.16
2022-10-05T06:53:35.698Z,85.90
2022-10-05T06:56:10.925Z,87.52
2022-10-05T06:58:49.471Z,86.21
2022-10-05T07:01:30.598Z,87.06
2022-10-05T07:04:16.923Z,85.49
2022-10-05T07:06:50.912Z,86.35
2022-10-05T07:09:35.139Z,85.04
2022-10-05T07:12:27.366Z,86.94
2022-10-05T07:15:06.981Z,83.87
2022-10-05T07:17:53.074Z,87.29
2022-10-05T07:20:30.107Z,85.90
2022-10-05T07:23:27.833Z,85.63
2022-10-05T07:26:05.855Z,85.50
2022-10-05T07:28:43.948Z,86.45
2022-10-05T07:31:18.921Z,84.07
2022-10-05T07:33:55.532Z,85.42
2022-10-05T07:36:54.654Z,83.94
2022-10-05T07:39:55.347Z,85.04
2022-10-05T07:42:27.079Z,84.65
2022-10-05T07:45:00.340Z,86.22
2022-10-05T07:47:36.703Z,85.77
2022-10-05T07:50:19.710Z,86.14
2022-10-05T07:52:55.823Z,86.02
2022-10-05T07:55:26.353Z,85.43
2022-10-05T07:58:06.002Z,86.44
2022-10-05T08:00:52.628Z,86.58
2022-10-05T08:03:31.410Z,84.60
2022-10-05T08:06:02.215Z,83.24
2022-10-05T08:08:36.676Z,85.27
2022-10-05T08:11:12.709Z,84.47
2022-10-05T08:13:47.558Z,84.31
2022-10-05T08:16:16.723Z,81.73
2022-10-05T08:18:55.223Z,80.86
2022-10-05T08:21:32.244Z,80.74
2022-10-05T08:24:08.160Z,81.24
2022-10-05T08:26:44.158Z,81.17
2022-10-05T08:29:25.265Z,80.96
2022-10-05T08:31:56.970Z,81.02
2022-10-05T08:34:31.028Z,82.43
2022-10-05T08:37:05.011Z,80.36
2022-10-05T08:39:38.344Z,80.81
2022-10-05T08:42:54.343Z,80.57
2022-10-05T08:45:55.303Z,78.56
2022-10-05T08:48:56.246Z,79.54
2022-10-05T08:51:58.172Z,81.68
2022-10-05T08:54:46.637Z,82.75
2022-10-05T08:57:47.482Z,81.19
2022-10-05T09:00:20.294Z,83.08
2022-10-05T09:03:16.393Z,81.67
2022-10-05T09:06:15.797Z,81.41
2022-10-05T09:08:59.855Z,80.98
2022-10-05T09:11:36.483Z,79.52
2022-10-05T09:14:28.617Z,79.28
2022-10-05T09:17:25.452Z,79.96
2022-10-05T09:20:15.711Z,78.26
2022-10-05T09:22:58.911Z,79.18
2022-10-05T09:25:41.541Z,78.18
2022-10-05T09:28:24.824Z,78.87
2022-10-05T09:31:24.149Z,78.01
2022-10-05T09:34:27.865Z,77.22
2022-10-05T09:37:27.795Z,77.20
2022-10-05T09:40:42.460Z,79.01
2022-10-05T09:43:27.554Z,79.81
2022-10-05T09:46:25.958Z,79.83
2022-10-05T09:49:17.501Z,78.78
2022-10-05T09:52:19.057Z,79.19
2022-10-05T09:55:20.643Z,80.37
2022-10-05T09:58:12.520Z,78.66
2022-10-05T10:01:09.500Z,79.31
2022-10-05T10:04:18.505Z,78.12
2022-10-05T10:07:30.541Z,77.01
2022-10-05T10:10:23.100Z,77.54
2022-10-05T10:13:10.776Z,78.64
2022-10-05T10:15:58.839Z,77.70
2022-10-05T10:18:50.794Z,79.48
2022-10-05T10:21:35.672Z,79.46
2022-10-05T10:24:14.793Z,79.43
2022-10-05T10:27:16.530Z,78.58
2022-10-05T10:30:27.428Z,78.39
2022-10-05T10:33:15.600Z,78.42
2022-10-05T10:35:50.231Z,78.10
2022-10-05T10:38:40.180Z,77.55
2022-10-05T10:41:51.814Z,78.17
2022-10-05T10:44:54.333Z,77.41
2022-10-05T10:47:44.801Z,76.76
2022-10-05T10:50:54.130Z,77.50
2022-10-05T10:53:49.348Z,77.53
2022-10-05T10:56:47.728Z,77.80
2022-10-05T10:59:45.971Z,77.35
2022-10-05T11:02:42.607Z,78.35
2022-10-05T11:05:51.860Z,76.98
2022-10-05T11:09:08.193Z,75.10
2022-10-05T11:12:22.005Z,76.15
2022-10-05T11:15:15.697Z,77.60
2022-10-05T11:18:07.794Z,76.93
2022-10-05T11:21:18.459Z,76.58
2022-10-05T11:24:24.791Z,76.69
2022-10-05T11:27:13.567Z,76.73
2022-10-05T11:30:19.831Z,74.71
2022-10-05T11:33:26.828Z,77.08
2022-10-05T11:36:08.835Z,78.64
2022-10-05T11:39:08.775Z,76.32
2022-10-05T11:42:08.943Z,78.75
2022-10-05T11:45:08.765Z,78.16
2022-10-05T11:47:52.798Z,75.57
2022-10-05T11:50:26.849Z,76.63
2022-10-05T11:52:59.304Z,76.48
2022-10-05T11:55:31.151Z,75.24
2022-10-05T11:58:02.241Z,75.05
2022-10-05T12:00:40.945Z,72.79
2022-10-05T12:03:37.872Z,74.23
2022-10-05T12:06:19.540Z,75.07
2022-10-05T12:08:58.271Z,73.50
2022-10-05T12:11:44.863Z,71.64
2022-10-05T12:14:24.210Z,72.62
2022-10-05T12:16:59.983Z,71.91
2022-10-05T12:19:33.868Z,74.10
2022-10-05T12:22:10.684Z,74.42
2022-10-05T12:25:03.516Z,73.19
2022-10-05T12:27:37.049Z,71.38
2022-10-05T12:30:13.506Z,74.10
2022-10-05T12:32:50.429Z,74.13
2022-10-05T12:35:43.822Z,73.39
2022-10-05T12:38:22.997Z,72.51
2022-10-05T12:40:56.956Z,72.50
2022-10-05T12:43:34.496Z,72.35
2022-10-05T12:46:17.751Z,70.73
2022-10-05T12:49:08.135Z,71.04
2022-10-05T12:51:42.312Z,70.74
2022-10-05T12:54:17.053Z,69.99
2022-10-05T12:56:50.724Z,69.96
2022-10-05T12:59:33.532Z,68.29
2022-10-05T13:02:14.095Z,70.37
2022-10-05T13:04:51.268Z,71.79
2022-10-05T13:07:32.223Z,71.00
2022-10-05T13:10:13.023Z,71.98
2022-10-05T13:12:51.202Z,72.11
2022-10-05T13:15:24.061Z,72.69
2022-10-05T13:18:05.312Z,71.17
2022-10-05T13:20:40.378Z,70.69
2022-10-05T13:23:14.413Z,72.64
2022-10-05T13:25:52.018Z,71.24
2022-10-05T13:28:24.675Z,71.77
2022-10-05T13:31:02.265Z,71.85
2022-10-05T13:33:52.068Z,73.21
2022-10-05T13:36:30.045Z,72.85
2022-10-05T13:39:04.591Z,71.02
2022-10-05T13:41:51.821Z,71.84
2022-10-05T13:44:26.911Z,72.54
2022-10-05T13:47:02.460Z,71.82
2022-10-05T13:49:37.669Z,71.34
2022-10-05T13:52:21.015Z,70.71
2022-10-05T13:54:57.938Z,72.32
2022-10-05T13:57:45.284Z,72.94
2022-10-05T14:00:22.734Z,72.47
2022-10-05T14:02:56.655Z,72.75
2022-10-05T14:05:26.835Z,71.24
2022-10-05T14:07:58.446Z,71.78
2022-10-05T14:10:38.550Z,71.20
2022-10-05T14:13:28.755Z,73.75
2022-10-05T14:15:59.555Z,72.60
2022-10-05T14:18:29.727Z,72.24
2022-10-05T14:21:16.675Z,71.22
2022-10-05T14:23:46.541Z,73.11
2022-10-05T14:26:20.171Z,72.72
2022-10-05T14:28:59.604Z,73.15
2022-10-05T14:31:35.399Z,72.10
2022-10-05T14:34:31.328Z,71.75
2022-10-05T14:37:02.677Z,72.15
2022-10-05T14:39:36.248Z,73.07
2022-10-05T14:42:15.439Z,72.55
2022-10-05T14:44:43.209Z,73.97
2022-10-05T14:47:21.289Z,74.33
2022-10-05T14:50:10.628Z,73.70
2022-10-05T14:52:41.146Z,72.55
2022-10-05T14:55:24.719Z,73.54
2022-10-05T14:58:04.149Z,72.79
2022-10-05T15:00:38.772Z,71.55
2022-10-05T15:03:33.734Z,72.91
2022-10-05T15:06:03.714Z,72.49
2022-10-05T15:08:52.524Z,72.05
2022-10-05T15:11:35.699Z,74.89
2022-10-05T15:14:13.343Z,73.52
2022-10-05T15:16:42.117Z,73.43
2022-10-05T15:19:17.614Z,73.92
2022-10-05T15:22:04.341Z,73.34
2022-10-05T15:24:43.426Z,74.28
2022-10-05T15:27:26.162Z,75.88
2022-10-05T15:30:04.493Z,73.83
2022-10-05T15:32:44.517Z,73.93
2022-10-05T15:35:36.806Z,73.48
2022-10-05T15:38:17.737Z,72.88
2022-10-05T15:40:50.699Z,74.55
2022-10-05T15:43:23.051Z,73.04
2022-10-05T15:46:01.626Z,74.68
2022-10-05T15:48:42.315Z,74.14
2022-10-05T15:51:19.809Z,74.31
2022-10-05T15:54:15.753Z,75.43
2022-10-05T15:56:48.405Z,76.59
2022-10-05T15:59:29.801Z,74.83
2022-10-05T16:02:01.875Z,75.09
2022-10-05T16:04:42.734Z,76.02
2022-10-05T16:07:35.419Z,74.10
2022-10-05T16:10:13.957Z,73.91
2022-10-05T16:12:52.700Z,75.01
2022-10-05T16:15:28.559Z,74.01
2022-10-05T16:18:12.138Z,75.65
2022-10-05T16:20:51.250Z,75.66
2022-10-05T16:23:29.829Z,76.21
2022-10-05T16:26:13.477Z,74.62
2022-10-05T16:28:50.869Z,74.00
2022-10-05T16:31:27.820Z,74.88
2022-10-05T16:34:06.572Z,75.12
2022-10-05T16:36:48.488Z,75.68
2022-10-05T16:39:23.924Z,75.07
2022-10-05T16:42:02.026Z,74.79
2022-10-05T16:44:39.606Z,75.61
2022-10-05T16:47:33.325Z,77.75
2022-10-05T16:50:09.814Z,77.11
2022-10-05T16:52:40.843Z,78.77
2022-10-05T16:55:14.493Z,76.59
2022-10-05T16:57:48.374Z,76.50
2022-10-05T17:00:21.276Z,75.63
2022-10-05T17:03:14.919Z,76.59
2022-10-05T17:05:57.716Z,75.98
2022-10-05T17:09:04.030Z,75.47
2022-10-05T17:11:43.716Z,75.55
2022-10-05T17:14:35.350Z,76.71
2022-10-05T17:17:33.987Z,75.46
2022-10-05T17:20:21.996Z,77.61
2022-10-05T17:22:52.366Z,77.14
2022-10-05T17:25:28.531Z,77.78
2022-10-05T17:27:58.081Z,77.06
2022-10-05T17:30:53.775Z,76.83
2022-10-05T17:33:27.586Z,77.13
2022-10-05T17:36:19.342Z,78.59
2022-10-05T17:38:50.281Z,79.51
2022-10-05T17:41:21.482Z,77.70
2022-10-05T17:44:19.868Z,78.73
2022-10-05T17:46:50.041Z,78.83
2022-10-05T17:49:26.591Z,79.04
2022-10-05T17:52:19.389Z,78.87
2022-10-05T17:55:20.816Z,77.25
2022-10-05T17:57:48.557Z,77.91
2022-10-05T18:00:35.571Z,77.08
2022-10-05T18:03:35.858Z,77.46
2022-10-05T18:06:30.971Z,76.39
2022-10-05T18:09:37.684Z,77.28
2022-10-05T18:12:27.955Z,76.82
2022-10-05T18:15:03.001Z,77.09
2022-10-05T18:17:39.912Z,76.38
2022-10-05T18:20:25.543Z,76.69
2022-10-05T18:22:55.926Z,76.39
2022-10-05T18:25:30.890Z,76.62
2022-10-05T18:28:07.947Z,76.16
2022-10-05T18:30:54.068Z,75.55
2022-10-05T18:33:40.184Z,76.34
2022-10-05T18:36:37.886Z,74.81
2022-10-05T18:39:18.319Z,76.21
2022-10-05T18:42:07.093Z,77.08
2022-10-05T18:44:40.506Z,76.33
2022-10-05T18:47:19.237Z,76.48
2022-10-05T18:50:06.500Z,76.26
2022-10-05T18:52:45.931Z,75.15
2022-10-05T18:55:21.974Z,75.13
2022-10-05T18:58:11.993Z,77.22
2022-10-05T19:01:06.641Z,74.12
2022-10-05T19:03:46.405Z,74.35
2022-10-05T19:06:24.385Z,75.00
2022-10-05T19:09:03.329Z,74.28
2022-10-05T19:11:37.882Z,75.12
2022-10-05T19:14:14.996Z,75.19
2022-10-05T19:16:55.410Z,76.21
2022-10-05T19:19:50.277Z,76.82
2022-10-05T19:22:29.303Z,75.88
2022-10-05T19:25:17.200Z,75.77
2022-10-05T19:27:55.555Z,75.54
2022-10-05T19:30:27.511Z,75.97
2022-10-05T19:33:08.462Z,75.51
2022-10-05T19:35:48.464Z,75.78
2022-10-05T19:38:26.488Z,77.26
2022-10-05T19:41:01.616Z,76.38
2022-10-05T19:43:45.765Z,77.70
2022-10-05T19:46:25.482Z,76.85
2022-10-05T19:48:55.546Z,76.69
2022-10-05T19:51:31.782Z,76.21
2022-10-05T19:54:03.142Z,76.15
2022-10-05T19:56:34.821Z,77.63
2022-10-05T19:59:13.256Z,76.02
2022-10-05T20:01:50.591Z,76.39
2022-10-05T20:04:34.182Z,77.47
2022-10-05T20:07:02.991Z,76.15
2022-10-05T20:09:50.196Z,76.20
2022-10-05T20:12:18.017Z,76.37
2022-10-05T20:15:05.955Z,77.03
2022-10-05T20:17:53.035Z,75.85
2022-10-05T20:20:30.830Z,76.56
2022-10-05T20:23:20.275Z,77.29
2022-10-05T20:26:08.762Z,77.00
2022-10-05T20:28:36.765Z,77.72
2022-10-05T20:31:06.784Z,76.76
2022-10-05T20:33:36.080Z,77.47
2022-10-05T20:36:04.589Z,77.31
2022-10-05T20:38:37.371Z,77.69
2022-10-05T20:41:08.685Z,76.89
2022-10-05T20:43:38.955Z,77.07
2022-10-05T20:46:07.674Z,77.54
2022-10-05T20:48:37.142Z,77.96
2022-10-05T20:51:05.132Z,77.27
2022-10-05T20:53:33.563Z,76.72
2022-10-05T20:56:04.394Z,78.55
2022-10-05T20:58:32.120Z,78.19
2022-10-05T21:01:18.407Z,76.84
2022-10-05T21:03:48.024Z,78.81
2022-10-05T21:06:15.748Z,77.98
2022-10-05T21:08:44.105Z,76.77
2022-10-05T21:11:11.805Z,77.72
2022-10-05T21:13:42.391Z,78.08
2022-10-05T21:16:13.038Z,78.14
2022-10-05T21:18:41.104Z,77.99
2022-10-05T21:21:10.380Z,79.96
2022-10-05T21:23:38.412Z,79.68
2022-10-05T21:26:07.299Z,79.13
2022-10-05T21:28:36.107Z,78.61
2022-10-05T21:31:03.929Z,79.02
2022-10-05T21:33:31.893Z,78.76
2022-10-05T21:36:00.171Z,78.82
2022-10-05T21:38:29.944Z,79.24
2022-10-05T21:40:58.061Z,77.60
2022-10-05T21:43:26.394Z,78.38
2022-10-05T21:45:56.277Z,78.35
2022-10-05T21:48:24.782Z,77.55
2022-10-05T21:50:52.890Z,77.45
2022-10-05T21:53:23.899Z,75.90
2022-10-05T21:55:53.334Z,77.57
2022-10-05T21:58:23.135Z,76.15
2022-10-05T22:00:50.921Z,76.43
2022-10-05T22:03:18.655Z,77.14
2022-10-05T22:05:46.560Z,76.71
2022-10-05T22:08:21.820Z,76.86
2022-10-05T22:10:49.896Z,77.40
2022-10-05T22:13:18.887Z,76.50
2022-10-05T22:15:46.760Z,75.72
2022-10-05T22:18:18.224Z,75.80
2022-10-05T22:20:46.884Z,75.26
2022-10-05T22:23:14.687Z,75.91
2022-10-05T22:25:43.262Z,76.80
2022-10-05T22:28:14.255Z,76.53
2022-10-05T22:30:46.013Z,76.99
2022-10-05T22:33:14.191Z,76.74
2022-10-05T22:35:41.968Z,76.27
2022-10-05T22:38:09.675Z,76.61
2022-10-05T22:40:37.456Z,75.45
2022-10-05T22:43:05.120Z,75.59
2022-10-05T22:45:32.980Z,76.43
2022-10-05T22:48:02.095Z,75.86
2022-10-05T22:50:29.956Z,76.69
2022-10-05T22:52:57.629Z,78.56
2022-10-05T22:55:25.640Z,81.35
2022-10-05T22:57:53.394Z,82.70
2022-10-05T23:00:27.622Z,85.01
2022-10-05T23:02:58.979Z,85.47
2022-10-05T23:05:27.959Z,86.81
2022-10-05T23:07:56.092Z,85.45
2022-10-05T23:10:26.064Z,85.52
2022-10-05T23:13:00.744Z,86.68
2022-10-05T23:15:28.795Z,86.99
2022-10-05T23:17:57.393Z,85.92
2022-10-05T23:20:25.991Z,86.02
2022-10-05T23:22:55.060Z,87.10
2022-10-05T23:25:23.142Z,85.81
2022-10-05T23:27:50.918Z,85.92
2022-10-05T23:30:18.783Z,85.69
2022-10-05T23:32:46.489Z,84.75
2022-10-05T23:35:14.530Z,84.01
2022-10-05T23:37:44.201Z,86.17
2022-10-05T23:40:14.684Z,86.71
2022-10-05T23:42:42.996Z,88.45
2022-10-05T23:45:12.184Z,87.57
2022-10-05T23:47:40.975Z,88.36
2022-10-05T23:50:10.115Z,86.80
2022-10-05T23:52:38.277Z,86.05
2022-10-05T23:55:07.412Z,87.32
2022-10-05T23:57:36.444Z,85.91
